Time;durP1;ratioP1;P1;durP2;ratioP2;P2;SDS_P1;SDS_P2;PMS_P1;PMS_P2;Temp;Humidity;BMP_temperature;BMP_pressure;BME280_temperature;BME280_humidity;BME280_pressure;Samples;Min_cycle;Max_cycle;Signal;HPM_P1;HPM_P2
2023/03/17 00:00:31;;;;;;;;;;;;;;;16.86;45.45;100960.28;4996482;28;1112;-40
2023/03/17 00:02:58;;;;;;;;;;;;;;;16.50;45.84;100957.41;4996555;28;1156;-41
2023/03/17 00:05:24;;;;;;;;;;;;;;;17.41;44.42;100949.66;4995791;28;1085;-42
2023/03/17 00:07:51;;;;;;;;;;;;;;;16.70;45.56;100959.38;4996827;28;1150;-39
2023/03/17 00:10:17;;;;;;;;;;;;;;;16.98;45.62;100963.59;5028134;28;1982;-37
2023/03/17 00:12:43;;;;;;;;;;;;;;;17.00;45.39;100958.69;4997006;28;1099;-41
2023/03/17 00:15:09;;;;;;;;;;;;;;;16.43;45.75;100952.16;4996642;28;1099;-42
2023/03/17 00:17:35;;;;;;;;;;;;;;;17.69;43.81;100945.50;4996081;28;1064;-39
2023/03/17 00:20:01;;;;;;;;;;;;;;;16.66;46.11;100950.88;4996288;28;1014;-39
2023/03/17 00:22:26;;;;;;;;;;;;;;;17.45;44.67;100948.81;5028077;28;1143;-40
2023/03/17 00:24:52;;;;;;;;;;;;;;;17.38;44.44;100945.50;4996268;28;1148;-38
2023/03/17 00:27:17;;;;;;;;;;;;;;;16.72;45.53;100948.97;4996140;28;1052;-42
2023/03/17 00:29:43;;;;;;;;;;;;;;;18.06;43.18;100938.03;4996296;28;1981;-40
2023/03/17 00:32:19;;;;;;;;;;;;;;;16.84;45.67;100945.97;4996624;28;1089;-40
2023/03/17 00:34:45;;;;;;;;;;;;;;;18.27;42.47;100938.78;5011324;28;1115;-40
2023/03/17 00:37:11;;;;;;;;;;;;;;;17.87;43.38;100941.34;4996282;28;1183;-39
2023/03/17 00:39:38;;;;;;;;;;;;;;;16.97;45.04;100951.00;5029197;28;1107;-41
2023/03/17 00:42:05;;;;;;;;;;;;;;;16.59;45.34;100953.88;4999591;28;1150;-38
2023/03/17 00:44:30;;;;;;;;;;;;;;;17.37;44.26;100949.34;4999633;28;1168;-41
2023/03/17 00:46:56;;;;;;;;;;;;;;;16.71;45.54;100950.88;5000007;28;1008;-39
2023/03/17 00:49:22;;;;;;;;;;;;;;;17.84;43.80;100947.41;4999359;28;1089;-39
2023/03/17 00:51:48;;;;;;;;;;;;;;;17.04;45.18;100945.22;4999900;28;1993;-42
2023/03/17 00:54:14;;;;;;;;;;;;;;;16.58;45.43;100954.16;4999630;28;1045;-40
2023/03/17 00:56:40;;;;;;;;;;;;;;;17.82;43.41;100951.53;4998377;28;1053;-40
2023/03/17 00:59:25;;;;;;;;;;;;;;;16.92;45.20;100950.97;4999541;28;1151;-42
2023/03/17 01:01:50;;;;;;;;;;;;;;;17.84;43.65;100952.06;5030967;28;1080;-42
2023/03/17 01:04:17;;;;;;;;;;;;;;;17.47;44.01;100958.72;5014476;28;2394;-41
2023/03/17 01:06:42;;;;;;;;;;;;;;;16.79;45.29;100963.28;4999362;28;1488;-37
2023/03/17 01:09:09;;;;;;;;;;;;;;;16.84;45.47;100976.19;4999625;28;1069;-37
2023/03/17 01:11:35;;;;;;;;;;;;;;;17.34;44.16;100966.41;5031219;28;1914;-44
2023/03/17 01:14:00;;;;;;;;;;;;;;;16.76;45.24;100956.41;4993450;28;1817;-41
2023/03/17 01:16:28;;;;;;;;;;;;;;;16.38;45.62;100965.84;4992782;28;1150;-38
2023/03/17 01:18:53;;;;;;;;;;;;;;;17.34;44.33;100966.41;4997599;28;1388;-39
2023/03/17 01:21:19;;;;;;;;;;;;;;;17.61;43.84;100966.16;4999395;28;1153;-40
2023/03/17 01:23:44;;;;;;;;;;;;;;;19.02;40.64;100968.19;4999400;28;1135;-42
2023/03/17 01:26:10;;;;;;;;;;;;;;;17.88;42.82;100969.66;4999400;28;1100;-37
2023/03/17 01:28:36;;;;;;;;;;;;;;;17.06;44.45;100970.50;4999580;28;1148;-42
2023/03/17 01:31:01;;;;;;;;;;;;;;;16.75;44.78;100976.69;4999089;28;1910;-39
2023/03/17 01:33:27;;;;;;;;;;;;;;;16.54;45.11;100980.47;4999498;28;1092;-37
2023/03/17 01:35:53;;;;;;;;;;;;;;;17.57;43.88;100975.19;4999266;28;1045;-44
2023/03/17 01:38:18;;;;;;;;;;;;;;;16.79;45.23;100970.66;4998803;28;1151;-40
2023/03/17 01:40:45;;;;;;;;;;;;;;;16.47;45.39;100974.41;4999035;28;1161;-42
2023/03/17 01:43:11;;;;;;;;;;;;;;;17.92;43.28;100976.28;4998496;28;865;-40
2023/03/17 01:45:55;;;;;;;;;;;;;;;16.85;45.17;100977.84;4997565;28;1202;-42
2023/03/17 01:48:20;;;;;;;;;;;;;;;18.62;41.64;100976.38;4989240;28;1014;-44
2023/03/17 01:50:47;;;;;;;;;;;;;;;17.97;42.56;100975.47;4998382;28;1974;-45
2023/03/17 01:53:12;;;;;;;;;;;;;;;17.07;44.41;100972.16;4998869;28;1013;-41
2023/03/17 01:55:38;;;;;;;;;;;;;;;16.77;44.91;100976.44;5029634;28;1107;-44
2023/03/17 01:58:05;;;;;;;;;;;;;;;17.52;43.63;100987.03;5013396;28;1111;-44
2023/03/17 02:00:31;;;;;;;;;;;;;;;16.88;44.90;100982.78;4997386;28;1362;-41
2023/03/17 02:02:57;;;;;;;;;;;;;;;18.51;41.56;100982.19;5013807;28;1194;-41
2023/03/17 02:05:24;;;;;;;;;;;;;;;17.58;43.26;100991.41;4998730;28;1091;-44
2023/03/17 02:07:50;;;;;;;;;;;;;;;16.97;44.48;100985.84;4998499;28;881;-41
2023/03/17 02:10:16;;;;;;;;;;;;;;;16.71;44.86;100996.75;4998680;28;1902;-40
2023/03/17 02:12:42;;;;;;;;;;;;;;;17.65;43.50;100991.16;4998229;28;1044;-38
2023/03/17 02:15:08;;;;;;;;;;;;;;;16.86;44.73;100994.03;5012950;28;2195;-38
2023/03/17 02:17:33;;;;;;;;;;;;;;;16.50;45.27;101002.13;4998148;28;1048;-40
2023/03/17 02:20:13;;;;;;;;;;;;;;;17.78;43.11;101003.50;4997886;28;1028;-40
2023/03/17 02:22:38;;;;;;;;;;;;;;;16.72;44.91;101001.97;4998314;28;1135;-39
2023/03/17 02:25:05;;;;;;;;;;;;;;;17.76;43.26;101006.53;4997861;28;1120;-42
2023/03/17 02:27:36;;;;;;;;;;;;;;;17.22;43.87;101001.56;5029959;28;1357;-38
2023/03/17 02:30:02;;;;;;;;;;;;;;;16.62;45.21;101007.44;5029142;28;1972;-37
2023/03/17 02:32:27;;;;;;;;;;;;;;;16.39;45.29;101011.41;5017704;28;1195;-38
2023/03/17 02:34:54;;;;;;;;;;;;;;;16.87;44.72;101011.34;4996281;28;1060;-40
2023/03/17 02:37:19;;;;;;;;;;;;;;;16.84;44.93;101022.88;4998018;28;1049;-40
2023/03/17 02:39:45;;;;;;;;;;;;;;;16.40;45.46;101030.38;4997471;28;1175;-43
2023/03/17 02:42:11;;;;;;;;;;;;;;;17.54;43.29;101030.75;4997630;28;1056;-40
2023/03/17 02:44:37;;;;;;;;;;;;;;;16.65;44.90;101037.09;4997396;28;1207;-42
2023/03/17 02:47:02;;;;;;;;;;;;;;;16.97;44.77;101036.16;4996550;28;1452;-44
2023/03/17 02:49:28;;;;;;;;;;;;;;;16.99;44.52;101030.38;4997473;28;1053;-41
2023/03/17 02:51:53;;;;;;;;;;;;;;;16.54;45.48;101040.88;5029156;28;1909;-40
2023/03/17 02:54:19;;;;;;;;;;;;;;;18.45;41.37;101029.03;4997593;28;1029;-43
2023/03/17 02:56:44;;;;;;;;;;;;;;;17.07;44.18;101038.09;4997016;28;1191;-42
2023/03/17 02:59:10;;;;;;;;;;;;;;;17.82;42.78;101034.06;4997660;28;1088;-39
2023/03/17 03:01:37;;;;;;;;;;;;;;;17.85;42.47;101025.25;4996375;28;1064;-42
2023/03/17 03:04:03;;;;;;;;;;;;;;;16.98;44.34;101039.72;4997229;28;1083;-39
2023/03/17 03:06:28;;;;;;;;;;;;;;;17.12;44.33;101045.53;4997186;28;1052;-39
2023/03/17 03:08:54;;;;;;;;;;;;;;;17.45;43.37;101035.97;5023645;28;1048;-39
2023/03/17 03:11:19;;;;;;;;;;;;;;;16.76;44.57;101035.22;4989249;28;1927;-41
2023/03/17 03:13:45;;;;;;;;;;;;;;;18.21;42.02;101039.00;4997202;28;1072;-43
2023/03/17 03:16:11;;;;;;;;;;;;;;;17.04;43.95;101039.47;4997335;28;1092;-37
2023/03/17 03:18:37;;;;;;;;;;;;;;;16.55;45.15;101039.75;4997226;28;1163;-41
2023/03/17 03:21:02;;;;;;;;;;;;;;;16.38;45.07;101038.06;4996673;28;834;-39
2023/03/17 03:23:28;;;;;;;;;;;;;;;17.42;43.77;101031.84;4996742;28;1076;-40
2023/03/17 03:25:53;;;;;;;;;;;;;;;16.83;44.63;101041.28;4996886;28;1048;-38
2023/03/17 03:28:19;;;;;;;;;;;;;;;18.05;42.41;101047.28;4997118;28;1129;-42
2023/03/17 03:30:45;;;;;;;;;;;;;;;18.44;40.99;101043.91;4996905;28;1965;-42
2023/03/17 03:33:11;;;;;;;;;;;;;;;17.22;43.70;101040.88;4996786;28;926;-37
2023/03/17 03:35:37;;;;;;;;;;;;;;;17.37;43.75;101053.00;4997090;28;1064;-40
2023/03/17 03:38:03;;;;;;;;;;;;;;;17.41;43.21;101041.16;4996637;28;1093;-39
2023/03/17 03:40:28;;;;;;;;;;;;;;;16.87;44.58;101047.03;4996968;28;1076;-38
2023/03/17 03:42:54;;;;;;;;;;;;;;;18.38;41.11;101050.50;4995154;28;1168;-42
2023/03/17 03:45:20;;;;;;;;;;;;;;;17.12;43.83;101051.00;4996428;28;1205;-41
2023/03/17 03:47:45;;;;;;;;;;;;;;;16.98;44.21;101061.69;4993388;28;1412;-40
2023/03/17 03:50:11;;;;;;;;;;;;;;;17.40;43.37;101058.78;4996469;28;1978;-40
2023/03/17 03:52:36;;;;;;;;;;;;;;;16.85;44.27;101060.25;4990139;28;1318;-40
2023/03/17 03:55:02;;;;;;;;;;;;;;;18.57;40.73;101063.69;4983946;28;1370;-45
2023/03/17 03:57:27;;;;;;;;;;;;;;;17.21;43.65;101080.44;4986054;28;1322;-38
2023/03/17 03:59:53;;;;;;;;;;;;;;;16.79;44.40;101083.25;4982352;28;1307;-41
2023/03/17 04:02:18;;;;;;;;;;;;;;;17.53;43.06;101086.81;4984772;28;1410;-42
2023/03/17 04:04:44;;;;;;;;;;;;;;;17.10;44.05;101085.06;4982465;28;1314;-42
2023/03/17 04:07:09;;;;;;;;;;;;;;;16.60;44.75;101090.03;4987502;28;1346;-42
2023/03/17 04:09:35;;;;;;;;;;;;;;;17.74;42.96;101093.19;4985436;28;1108;-42
2023/03/17 04:12:01;;;;;;;;;;;;;;;17.12;43.68;101089.47;4979131;28;1330;-40
2023/03/17 04:14:27;;;;;;;;;;;;;;;17.13;44.15;101094.72;4999545;28;1113;-42
2023/03/17 04:16:53;;;;;;;;;;;;;;;18.16;41.58;101097.63;5000534;28;1143;-41
2023/03/17 04:19:20;;;;;;;;;;;;;;;17.04;44.00;101105.41;5000275;28;1227;-37
2023/03/17 04:21:46;;;;;;;;;;;;;;;16.71;44.33;101118.38;5000579;28;919;-39
2023/03/17 04:24:12;;;;;;;;;;;;;;;17.38;43.38;101115.13;5000491;28;1119;-40
2023/03/17 04:26:37;;;;;;;;;;;;;;;17.00;43.98;101108.94;5000273;28;1111;-47
2023/03/17 04:29:03;;;;;;;;;;;;;;;17.82;42.42;101124.81;5000416;28;1068;-45
2023/03/17 04:31:28;;;;;;;;;;;;;;;18.41;40.88;101127.06;5000047;28;1910;-43
2023/03/17 04:33:54;;;;;;;;;;;;;;;17.23;43.57;101127.72;5000190;28;1036;-47
2023/03/17 04:36:20;;;;;;;;;;;;;;;16.81;44.30;101130.53;4999912;28;1191;-43
2023/03/17 04:38:46;;;;;;;;;;;;;;;17.82;42.30;101135.84;5000390;28;1208;-46
2023/03/17 04:41:12;;;;;;;;;;;;;;;16.92;43.95;101127.56;5000160;28;1082;-43
2023/03/17 04:43:37;;;;;;;;;;;;;;;18.56;40.79;101130.88;4999931;28;1290;-47
2023/03/17 04:46:03;;;;;;;;;;;;;;;17.68;42.34;101141.84;4999958;28;1104;-44
2023/03/17 04:48:30;;;;;;;;;;;;;;;16.90;43.92;101138.03;4999732;28;1267;-43
2023/03/17 04:50:56;;;;;;;;;;;;;;;16.93;44.43;101139.41;4999532;28;1902;-48
2023/03/17 04:53:21;;;;;;;;;;;;;;;17.30;43.07;101157.69;5000065;28;1219;-48
2023/03/17 04:55:46;;;;;;;;;;;;;;;16.81;44.20;101152.50;4999116;28;1115;-41
2023/03/17 04:58:12;;;;;;;;;;;;;;;16.49;44.26;101158.88;4999974;28;1241;-45
2023/03/17 05:00:38;;;;;;;;;;;;;;;17.81;42.10;101167.19;5000098;28;1048;-45
2023/03/17 05:03:05;;;;;;;;;;;;;;;16.86;44.03;101169.00;4999849;28;1213;-44
2023/03/17 05:05:31;;;;;;;;;;;;;;;16.74;44.62;101172.75;4999263;28;1032;-45
2023/03/17 05:07:56;;;;;;;;;;;;;;;17.52;42.48;101167.69;4998686;28;1455;-43
2023/03/17 05:10:22;;;;;;;;;;;;;;;16.72;44.29;101165.91;4999329;28;1902;-46
2023/03/17 05:12:47;;;;;;;;;;;;;;;17.89;42.07;101155.66;4999579;28;1004;-44
2023/03/17 05:15:13;;;;;;;;;;;;;;;17.02;43.79;101159.78;4999078;28;1103;-44
2023/03/17 05:17:38;;;;;;;;;;;;;;;16.60;44.24;101171.56;4999564;28;1180;-41
2023/03/17 05:20:04;;;;;;;;;;;;;;;17.50;42.41;101161.59;4999017;28;1153;-46
2023/03/17 05:22:30;;;;;;;;;;;;;;;16.60;44.46;101168.84;4999149;28;1176;-46
2023/03/17 05:24:55;;;;;;;;;;;;;;;17.68;42.57;101166.59;4998164;28;1080;-39
2023/03/17 05:27:22;;;;;;;;;;;;;;;17.09;43.66;101167.78;4999129;28;1240;-42
2023/03/17 05:29:47;;;;;;;;;;;;;;;16.63;44.47;101173.78;4998894;28;1973;-42
2023/03/17 05:32:13;;;;;;;;;;;;;;;17.51;42.78;101174.28;4998117;28;1105;-49
2023/03/17 05:34:38;;;;;;;;;;;;;;;16.90;43.80;101181.13;4989930;28;908;-49
2023/03/17 05:37:04;;;;;;;;;;;;;;;16.55;44.84;101177.03;4998497;28;1212;-47
2023/03/17 05:39:30;;;;;;;;;;;;;;;17.76;42.11;101188.06;4998484;28;1408;-49
2023/03/17 05:41:56;;;;;;;;;;;;;;;16.79;43.93;101179.38;4999140;28;1137;-55
2023/03/17 05:44:22;;;;;;;;;;;;;;;17.03;43.84;101196.34;4998143;28;1170;-53
2023/03/17 05:46:47;;;;;;;;;;;;;;;17.02;43.39;101195.50;4998057;28;1012;-52
2023/03/17 05:49:13;;;;;;;;;;;;;;;17.91;42.07;101200.25;4998743;28;1069;-52
2023/03/17 05:51:38;;;;;;;;;;;;;;;18.76;39.67;101199.72;4998675;28;1914;-51
2023/03/17 05:54:04;;;;;;;;;;;;;;;17.33;42.90;101205.81;4998616;28;1029;-50
2023/03/17 05:56:32;;;;;;;;;;;;;;;16.92;43.84;101206.44;4997965;28;1105;-53
2023/03/17 05:58:59;;;;;;;;;;;;;;;17.64;42.68;101212.25;4998079;28;1151;-55
2023/03/17 06:01:24;;;;;;;;;;;;;;;17.16;43.46;101212.31;4998146;28;1100;-54
2023/03/17 06:03:50;;;;;;;;;;;;;;;16.85;43.82;101233.28;4985841;28;1032;-52
2023/03/17 06:06:16;;;;;;;;;;;;;;;17.54;42.57;101225.97;4997903;28;1148;-51
2023/03/17 06:08:41;;;;;;;;;;;;;;;16.95;43.79;101225.13;4997799;28;1113;-51
2023/03/17 06:11:07;;;;;;;;;;;;;;;17.01;43.70;101232.31;4987872;28;1918;-54
2023/03/17 06:13:32;;;;;;;;;;;;;;;17.58;42.36;101246.34;4997180;28;1267;-55
2023/03/17 06:15:58;;;;;;;;;;;;;;;17.10;43.43;101247.19;4997669;28;1199;-50
2023/03/17 06:18:23;;;;;;;;;;;;;;;16.84;43.82;101253.59;4997797;28;1053;-48
2023/03/17 06:20:49;;;;;;;;;;;;;;;16.62;44.59;101259.16;4997757;28;1211;-48
2023/03/17 06:23:14;;;;;;;;;;;;;;;16.42;45.04;101264.25;4997900;28;1049;-45
2023/03/17 06:25:40;;;;;;;;;;;;;;;16.23;45.24;101261.03;4997686;28;1160;-47
2023/03/17 06:28:06;;;;;;;;;;;;;;;16.08;45.87;101274.59;4997485;28;1040;-47
2023/03/17 06:30:31;;;;;;;;;;;;;;;15.98;46.02;101280.78;4997046;28;1910;-48
2023/03/17 06:32:57;;;;;;;;;;;;;;;15.84;46.33;101282.28;4997695;28;1119;-48
2023/03/17 06:35:23;;;;;;;;;;;;;;;15.72;46.29;101277.75;4997267;28;1121;-44
2023/03/17 06:37:49;;;;;;;;;;;;;;;15.57;46.79;101285.75;4996796;28;1040;-46
2023/03/17 06:40:15;;;;;;;;;;;;;;;15.46;46.92;101286.69;4998045;28;1056;-42
2023/03/17 06:42:40;;;;;;;;;;;;;;;15.40;46.98;101296.75;4995630;28;973;-42
2023/03/17 06:45:08;;;;;;;;;;;;;;;15.29;47.25;101279.38;4996940;28;1196;-46
2023/03/17 06:47:36;;;;;;;;;;;;;;;15.23;47.36;101305.00;4997050;28;1129;-49
2023/03/17 06:50:02;;;;;;;;;;;;;;;16.60;44.38;101281.41;4997279;28;1906;-49
2023/03/17 06:52:28;;;;;;;;;;;;;;;16.84;43.56;101289.28;4996801;28;1145;-46
2023/03/17 06:54:53;;;;;;;;;;;;;;;16.05;45.41;101286.91;4997420;28;1208;-47
2023/03/17 06:57:19;;;;;;;;;;;;;;;15.73;46.24;101289.53;4996411;28;1101;-49
2023/03/17 06:59:45;;;;;;;;;;;;;;;15.57;46.47;101296.69;4997096;28;1029;-49
2023/03/17 07:02:10;;;;;;;;;;;;;;;15.43;46.71;101293.53;4997087;28;1128;-51
2023/03/17 07:04:37;;;;;;;;;;;;;;;16.69;43.92;101300.97;4997207;28;1156;-47
2023/03/17 07:07:05;;;;;;;;;;;;;;;16.96;43.13;101283.63;4997108;28;1362;-45
2023/03/17 07:09:33;;;;;;;;;;;;;;;16.09;45.27;101287.22;4997164;28;1073;-46
2023/03/17 07:12:03;;;;;;;;;;;;;;;15.74;46.07;101289.25;4995333;28;1914;-49
2023/03/17 07:14:32;;;;;;;;;;;;;;;15.54;46.66;101292.59;4976865;28;1315;-49
2023/03/17 07:16:58;;;;;;;;;;;;;;;15.40;46.81;101296.75;4987047;28;1220;-49
2023/03/17 07:19:25;;;;;;;;;;;;;;;15.77;46.04;101295.31;4994515;28;1083;-44
2023/03/17 07:21:50;;;;;;;;;;;;;;;17.26;42.73;101294.84;4996742;28;1105;-48
2023/03/17 07:24:16;;;;;;;;;;;;;;;16.53;43.95;101289.84;4996651;28;1121;-48
2023/03/17 07:26:42;;;;;;;;;;;;;;;15.92;45.69;101301.00;4995054;28;1191;-48
2023/03/17 07:29:08;;;;;;;;;;;;;;;15.70;46.14;101290.03;4984817;28;1123;-48
2023/03/17 07:31:37;;;;;;;;;;;;;;;15.51;46.42;101300.47;4996417;28;1981;-48
2023/03/17 07:34:03;;;;;;;;;;;;;;;15.31;46.92;101293.63;4996732;28;921;-49
2023/03/17 07:36:29;;;;;;;;;;;;;;;15.54;46.67;101289.84;4996172;28;1111;-47
2023/03/17 07:38:54;;;;;;;;;;;;;;;17.11;42.80;101289.25;4996317;28;1123;-47
2023/03/17 07:41:21;;;;;;;;;;;;;;;16.49;44.09;101280.47;5011856;28;1116;-45
2023/03/17 07:43:46;;;;;;;;;;;;;;;15.88;45.49;101269.72;4996304;28;1226;-46
2023/03/17 07:46:12;;;;;;;;;;;;;;;15.63;46.24;101267.47;4996619;28;1132;-47
2023/03/17 07:48:40;;;;;;;;;;;;;;;15.45;46.76;101266.69;4996404;28;1057;-45
2023/03/17 07:51:12;;;;;;;;;;;;;;;15.85;45.98;101273.81;4996315;28;1981;-47
2023/03/17 07:53:38;;;;;;;;;;;;;;;17.11;42.83;101264.53;4996653;28;1009;-39
2023/03/17 07:56:04;;;;;;;;;;;;;;;16.09;45.17;101270.78;4996597;28;1074;-44
2023/03/17 07:58:30;;;;;;;;;;;;;;;15.65;46.26;101268.84;4996156;28;1027;-49
2023/03/17 08:00:56;;;;;;;;;;;;;;;15.54;46.61;101273.41;4997038;28;1164;-45
2023/03/17 08:03:22;;;;;;;;;;;;;;;15.82;45.92;101278.97;4996253;28;1136;-44
2023/03/17 08:05:52;;;;;;;;;;;;;;;17.30;42.42;101270.38;4986441;28;988;-40
2023/03/17 08:08:20;;;;;;;;;;;;;;;16.47;44.38;101284.59;4993670;28;1078;-45
2023/03/17 08:10:45;;;;;;;;;;;;;;;15.87;45.61;101274.34;4995571;28;1965;-46
2023/03/17 08:13:11;;;;;;;;;;;;;;;15.67;46.25;101274.91;4995815;28;1164;-42
2023/03/17 08:15:36;;;;;;;;;;;;;;;15.46;46.56;101256.53;4995769;28;1088;-46
2023/03/17 08:18:02;;;;;;;;;;;;;;;15.78;46.02;101280.53;4996013;28;1238;-42
2023/03/17 08:20:28;;;;;;;;;;;;;;;17.25;42.33;101278.59;4995888;28;1044;-44
2023/03/17 08:22:54;;;;;;;;;;;;;;;16.32;44.29;101280.59;4995256;28;1164;-44
2023/03/17 08:25:20;;;;;;;;;;;;;;;15.83;45.63;101272.41;4996349;28;1103;-44
2023/03/17 08:27:46;;;;;;;;;;;;;;;15.56;46.24;101289.59;4995233;28;1215;-45
2023/03/17 08:30:11;;;;;;;;;;;;;;;15.43;46.64;101289.94;4996097;28;1972;-43
2023/03/17 08:32:37;;;;;;;;;;;;;;;16.12;44.97;101291.34;4995757;28;1164;-47
2023/03/17 08:35:05;;;;;;;;;;;;;;;17.37;42.28;101289.41;4995828;28;1196;-46
2023/03/17 08:37:31;;;;;;;;;;;;;;;16.29;44.65;101281.13;4995750;28;1224;-42
2023/03/17 08:39:56;;;;;;;;;;;;;;;15.84;45.50;101283.09;4996332;28;1263;-44
2023/03/17 08:42:22;;;;;;;;;;;;;;;15.56;46.20;101276.69;4993124;28;1232;-40
2023/03/17 08:44:48;;;;;;;;;;;;;;;15.40;46.52;101292.13;4995516;28;1047;-47
2023/03/17 08:47:13;;;;;;;;;;;;;;;16.02;45.18;101290.16;4994763;28;927;-43
2023/03/17 08:49:39;;;;;;;;;;;;;;;17.36;42.08;101288.59;4996458;28;1244;-45
2023/03/17 08:52:04;;;;;;;;;;;;;;;16.39;44.13;101289.44;4993816;28;1967;-47
2023/03/17 08:54:30;;;;;;;;;;;;;;;15.80;45.86;101281.13;4993876;28;1125;-44
2023/03/17 08:56:56;;;;;;;;;;;;;;;15.60;46.10;101285.25;4994494;28;1061;-47
2023/03/17 08:59:22;;;;;;;;;;;;;;;15.40;46.58;101280.31;4992595;28;1243;-45
2023/03/17 09:01:47;;;;;;;;;;;;;;;15.34;46.72;101292.31;4999317;28;1157;-45
2023/03/17 09:04:14;;;;;;;;;;;;;;;16.92;43.06;101280.59;4999790;28;1176;-45
2023/03/17 09:06:40;;;;;;;;;;;;;;;16.77;43.23;101284.84;4999206;28;1156;-47
2023/03/17 09:09:06;;;;;;;;;;;;;;;15.99;45.05;101285.22;4999274;28;1156;-43
2023/03/17 09:11:32;;;;;;;;;;;;;;;15.65;46.08;101277.06;4998719;28;1914;-44
2023/03/17 09:13:58;;;;;;;;;;;;;;;15.48;46.48;101279.88;4998850;28;1060;-40
2023/03/17 09:16:23;;;;;;;;;;;;;;;15.45;46.35;101276.84;4999149;28;1144;-42
2023/03/17 09:18:49;;;;;;;;;;;;;;;17.08;42.69;101276.88;4998803;28;1030;-43
2023/03/17 09:21:15;;;;;;;;;;;;;;;16.39;43.92;101283.94;4999350;28;1303;-45
2023/03/17 09:23:40;;;;;;;;;;;;;;;15.82;45.50;101279.81;4998699;28;1010;-43
2023/03/17 09:26:06;;;;;;;;;;;;;;;15.54;46.10;101281.63;4999040;28;1211;-43
2023/03/17 09:28:31;;;;;;;;;;;;;;;15.37;46.62;101270.69;4999040;28;1084;-43
2023/03/17 09:31:01;;;;;;;;;;;;;;;16.40;44.29;101269.16;5003341;28;1962;-42
2023/03/17 09:33:26;;;;;;;;;;;;;;;17.33;41.90;101272.59;4998626;28;1076;-42
2023/03/17 09:35:53;;;;;;;;;;;;;;;16.25;44.23;101263.50;4998264;28;889;-46
2023/03/17 09:38:18;;;;;;;;;;;;;;;15.78;45.37;101275.03;4992100;28;1516;-42
2023/03/17 09:40:45;;;;;;;;;;;;;;;15.56;46.09;101267.66;4992190;28;1085;-44
2023/03/17 09:43:31;;;;;;;;;;;;;;;15.36;46.39;101274.53;4985346;28;990;-41
2023/03/17 09:45:59;;;;;;;;;;;;;;;15.84;45.47;101274.88;4981871;28;1332;-41
2023/03/17 09:48:27;;;;;;;;;;;;;;;17.22;42.25;101268.97;4997036;28;1264;-42
2023/03/17 09:50:56;;;;;;;;;;;;;;;16.22;44.37;101253.88;4998592;28;1909;-44
2023/03/17 09:53:26;;;;;;;;;;;;;;;15.68;45.54;101271.09;4997038;28;1102;-44
2023/03/17 09:55:54;;;;;;;;;;;;;;;15.49;46.21;101272.50;4998239;28;1060;-46
2023/03/17 09:58:21;;;;;;;;;;;;;;;15.31;46.42;101268.16;4997398;28;1056;-46
2023/03/17 10:00:46;;;;;;;;;;;;;;;16.72;43.30;101265.59;4998273;28;1013;-42
2023/03/17 10:03:12;;;;;;;;;;;;;;;16.56;43.42;101261.03;4997066;28;1291;-45
2023/03/17 10:05:38;;;;;;;;;;;;;;;15.84;45.31;101257.59;5029676;28;1207;-43
2023/03/17 10:08:04;;;;;;;;;;;;;;;15.57;45.69;101263.81;4998468;28;1247;-44
2023/03/17 10:10:32;;;;;;;;;;;;;;;15.42;46.39;101264.47;4998102;28;1911;-46
2023/03/17 10:13:09;;;;;;;;;;;;;;;16.84;43.01;101270.06;4998740;28;1076;-45
2023/03/17 10:15:49;;;;;;;;;;;;;;;16.58;43.54;101261.63;4997742;28;1040;-47
2023/03/17 10:18:15;;;;;;;;;;;;;;;15.86;45.36;101280.91;4992819;28;1049;-45
2023/03/17 10:20:54;;;;;;;;;;;;;;;15.56;45.79;101267.66;5027687;28;1052;-43
2023/03/17 10:23:20;;;;;;;;;;;;;;;15.38;46.40;101277.00;5028403;28;1092;-46
2023/03/17 10:25:47;;;;;;;;;;;;;;;15.26;46.62;101285.31;5029427;28;1123;-45
2023/03/17 10:28:15;;;;;;;;;;;;;;;16.73;43.39;101277.38;4986941;28;1130;-44
2023/03/17 10:30:42;;;;;;;;;;;;;;;16.99;42.42;101281.19;4995437;28;1898;-45
2023/03/17 10:33:07;;;;;;;;;;;;;;;16.04;44.62;101270.72;4989596;28;1127;-46
2023/03/17 10:35:35;;;;;;;;;;;;;;;15.70;45.48;101285.38;4988515;28;1240;-44
2023/03/17 10:38:00;;;;;;;;;;;;;;;15.48;46.03;101292.75;4998133;28;1256;-38
2023/03/17 10:40:27;;;;;;;;;;;;;;;15.30;46.55;101294.69;4997834;28;1044;-41
2023/03/17 10:42:53;;;;;;;;;;;;;;;15.28;46.62;101294.13;5029371;28;1350;-44
2023/03/17 10:45:32;;;;;;;;;;;;;;;16.90;42.88;101291.00;5029439;28;1136;-41
2023/03/17 10:47:58;;;;;;;;;;;;;;;16.58;43.34;101294.56;4997247;28;1168;-43
2023/03/17 10:50:28;;;;;;;;;;;;;;;15.87;45.03;101279.03;4998282;28;1905;-41
2023/03/17 10:52:58;;;;;;;;;;;;;;;15.62;45.71;101288.56;4997825;28;961;-41
2023/03/17 10:55:25;;;;;;;;;;;;;;;15.44;46.16;101297.91;4997605;28;1115;-43
2023/03/17 10:57:57;;;;;;;;;;;;;;;15.27;46.83;101297.94;4985398;28;1139;-44
2023/03/17 11:00:23;;;;;;;;;;;;;;;16.16;44.88;101292.50;4992402;28;1375;-42
2023/03/17 11:02:56;;;;;;;;;;;;;;;17.17;42.10;101290.13;4997760;28;1121;-44
2023/03/17 11:05:23;;;;;;;;;;;;;;;16.06;44.86;101285.81;4997433;28;1180;-45
2023/03/17 11:07:49;;;;;;;;;;;;;;;15.69;45.79;101286.44;4997313;28;1052;-45
2023/03/17 11:10:19;;;;;;;;;;;;;;;15.48;46.34;101292.75;4997142;28;1906;-42
2023/03/17 11:12:45;;;;;;;;;;;;;;;15.37;46.72;101294.53;4997100;28;983;-46
2023/03/17 11:15:13;;;;;;;;;;;;;;;16.54;43.85;101296.19;5029359;28;1424;-40
2023/03/17 11:17:40;;;;;;;;;;;;;;;16.72;43.40;101289.47;4997378;28;1264;-41
2023/03/17 11:20:05;;;;;;;;;;;;;;;15.91;45.33;101291.16;4997550;28;1060;-40
2023/03/17 11:22:38;;;;;;;;;;;;;;;15.59;46.07;101289.06;4996947;28;1024;-41
2023/03/17 11:25:05;;;;;;;;;;;;;;;15.40;46.38;101280.31;5018941;28;1021;-42
2023/03/17 11:27:34;;;;;;;;;;;;;;;15.74;45.89;101293.94;4992880;28;1162;-41
2023/03/17 11:30:17;;;;;;;;;;;;;;;17.22;42.09;101288.22;4988524;28;1983;-45
2023/03/17 11:33:04;;;;;;;;;;;;;;;16.29;44.47;101292.09;4996762;28;992;-42
2023/03/17 11:35:40;;;;;;;;;;;;;;;15.78;45.89;101281.38;5028249;28;1179;-43
2023/03/17 11:38:08;;;;;;;;;;;;;;;15.51;46.10;101282.09;4996891;28;1133;-44
2023/03/17 11:40:34;;;;;;;;;;;;;;;15.42;46.34;101274.56;4996984;28;1101;-47
2023/03/17 11:42:59;;;;;;;;;;;;;;;16.80;43.43;101268.94;4996926;28;1048;-43
2023/03/17 11:45:31;;;;;;;;;;;;;;;16.78;43.03;101277.44;4996255;28;1221;-40
2023/03/17 11:48:32;;;;;;;;;;;;;;;15.98;45.01;101275.31;5021946;28;1390;-43
2023/03/17 11:51:07;;;;;;;;;;;;;;;15.61;45.81;101255.91;4955841;28;1985;-43
2023/03/17 11:53:35;;;;;;;;;;;;;;;15.44;46.22;101270.50;5007672;28;1356;-45
2023/03/17 11:56:01;;;;;;;;;;;;;;;16.47;44.11;101265.38;4996384;28;1187;-47
2023/03/17 11:58:30;;;;;;;;;;;;;;;16.98;42.76;101260.28;4996984;28;1121;-44
2023/03/17 12:00:56;;;;;;;;;;;;;;;16.01;45.11;101261.06;4992760;28;1231;-42
2023/03/17 12:03:25;;;;;;;;;;;;;;;15.68;45.65;101257.41;5018720;28;1053;-44
2023/03/17 12:05:53;;;;;;;;;;;;;;;15.47;46.30;101264.50;5028263;28;1047;-42
2023/03/17 12:08:28;;;;;;;;;;;;;;;15.80;45.60;101261.94;4996325;28;1135;-45
2023/03/17 12:10:55;;;;;;;;;;;;;;;17.27;42.30;101268.19;4996764;28;1910;-42
2023/03/17 12:13:22;;;;;;;;;;;;;;;16.20;44.38;101260.72;4996442;28;958;-46
2023/03/17 12:15:49;;;;;;;;;;;;;;;15.77;45.51;101257.78;5028384;28;1215;-42
2023/03/17 12:18:31;;;;;;;;;;;;;;;15.57;46.22;101267.41;5027923;28;1144;-45
2023/03/17 12:21:03;;;;;;;;;;;;;;;15.35;46.47;101267.38;4985735;28;1133;-42
2023/03/17 12:23:47;;;;;;;;;;;;;;;15.97;45.23;101257.19;5027213;28;1258;-43
2023/03/17 12:26:20;;;;;;;;;;;;;;;17.36;41.93;101252.00;4996688;28;1297;-45
2023/03/17 12:28:51;;;;;;;;;;;;;;;16.21;44.42;101259.63;4996476;28;1224;-44
2023/03/17 12:31:21;;;;;;;;;;;;;;;15.82;45.64;101254.28;5027602;28;1910;-44
2023/03/17 12:34:05;;;;;;;;;;;;;;;15.57;46.26;101252.84;5027859;28;1100;-46
2023/03/17 12:36:31;;;;;;;;;;;;;;;15.44;46.57;101259.53;4998783;28;1088;-42
2023/03/17 12:39:00;;;;;;;;;;;;;;;16.40;44.19;101254.59;5000332;28;1243;-46
2023/03/17 12:41:32;;;;;;;;;;;;;;;17.23;42.18;101253.31;5031392;28;1259;-47
2023/03/17 12:43:57;;;;;;;;;;;;;;;16.18;44.63;101251.91;5000219;28;1294;-45
2023/03/17 12:46:29;;;;;;;;;;;;;;;15.78;45.78;101250.34;4999821;28;1036;-47